Milwaukee, WI (53207)

3:36 AM CST op 29 november 2014 (GMT -0600)
APRSWXNET Milwaukee WI US | Change Station
CLOSE
Current Station
Persoonlijk weerstation
Location: Milwaukee, WI
Geometrische hoogte: 636 ft
Nabije weerstations

Hoogte 636 ft 42.99 °N, 87.88 °W | Updated 38 minutes ago

Haze
Heiigheid
34 °F
Voelt als 34 °F
N
0
Wind Variabel Wind van ZZW
Gusts 3.0 mijl/u

Vandaag
Hoog -- | Laag -- °F
--% Kans op neerslag
Gisteren
Hoog -- | Laag -- °F
Precip. -- inches
7:00 AM 4:18 PM
Wassende halvemaan, 50% visible
Druk 29.81 inches
Zicht 6.0 mijlen
Wolken Gering 20000 ft
Gevoelstemperatuur 34 °F
Dauwpunt 31 °F
Vochtigheid 87%
Neerslag 0.00 inches
Dikte sneeuw Niet beschikbaar.
UV 0 van de 12
Pollen .10 van de 12
Luchtkwaliteit Niet beschikbaar.
Flu Activity Niet beschikbaar.
METAR KMKE 290852Z 16008KT 6SM HZ FEW200 01/M02 A2978 RMK AO2 SLP093 T00061022 58024

More Conditions Fewer Conditions

Druk 29.81 inches
Zicht 6.0 mijlen
Wolken Gering 20000 ft
Gevoelstemperatuur 34 °F
Dauwpunt 31 °F
Vochtigheid 87%
Neerslag 0.00 inches
Dikte sneeuw Niet beschikbaar.
UV 0 van de 12
Pollen .10 van de 12
Luchtkwaliteit Niet beschikbaar.
Flu Activity Niet beschikbaar.
METAR KMKE 290852Z 16008KT 6SM HZ FEW200 01/M02 A2978 RMK AO2 SLP093 T00061022 58024

More Conditions Fewer Conditions

10-Day Weather Forecast

Almanac

Astronomie

Nov. 29, 2014 Opkomst Ondergang
Werkelijke tijd
Burgerlijke schemering
Nautische schemering
Astronomische schemering
Maan
Golflengte van het zichtbare licht
Daglengte
Tomorrow will be .
, % of the Moon is Illuminated

Extremen vandaag

State Highs State Lows

Community

WunderPhotos

Upload Photos

1,774,442 foto’s ge-upload!

WunderBlogs® & News

Nearby

Luchtkwaliteit

  Luchtkwaliteit LK-index Verontreinigende stof
Not available.

Dikte sneeuw

Station Depth Geometrische hoogte

Aardbevingen

Stad Distance Mag. Time & Date
Minimum magnitude displayed is 2.5.

Watertemperatuur langs de kust

Plaats Temperatuur

Nabije weerstations